createdAt,value
2024-01-15T00:02:09.900Z,48.74
2024-01-15T00:04:39.431Z,48.40
2024-01-15T00:07:07.179Z,48.64
2024-01-15T00:09:35.089Z,48.63
2024-01-15T00:12:03.341Z,48.43
2024-01-15T00:14:31.037Z,48.64
2024-01-15T00:16:59.957Z,48.80
2024-01-15T00:19:28.839Z,48.88
2024-01-15T00:21:56.525Z,48.85
2024-01-15T00:24:24.147Z,48.72
2024-01-15T00:26:51.778Z,48.82
2024-01-15T00:29:19.376Z,49.09
2024-01-15T00:31:47.001Z,48.65
2024-01-15T00:34:16.155Z,48.94
2024-01-15T00:36:44.016Z,49.06
2024-01-15T00:39:12.033Z,48.84
2024-01-15T00:41:39.813Z,49.25
2024-01-15T00:44:08.122Z,48.90
2024-01-15T00:46:42.942Z,49.17
2024-01-15T00:49:10.610Z,49.07
2024-01-15T00:51:39.578Z,49.42
2024-01-15T00:54:07.531Z,49.29
2024-01-15T00:56:35.572Z,49.17
2024-01-15T00:59:03.187Z,49.27
2024-01-15T01:01:31.078Z,49.22
2024-01-15T01:03:58.922Z,49.12
2024-01-15T01:06:26.965Z,49.06
2024-01-15T01:08:55.923Z,49.40
2024-01-15T01:11:23.586Z,49.49
2024-01-15T01:13:51.192Z,49.35
2024-01-15T01:16:18.993Z,49.24
2024-01-15T01:18:46.749Z,49.11
2024-01-15T01:21:14.479Z,49.25
2024-01-15T01:23:42.732Z,49.42
2024-01-15T01:26:11.659Z,49.29
2024-01-15T01:28:39.238Z,49.43
2024-01-15T01:31:07.025Z,49.56
2024-01-15T01:33:34.756Z,49.63
2024-01-15T01:36:02.430Z,49.38
2024-01-15T01:38:30.047Z,49.41
2024-01-15T01:40:57.838Z,49.67
2024-01-15T01:43:27.007Z,49.62
2024-01-15T01:45:56.872Z,49.65
2024-01-15T01:48:26.227Z,49.59
2024-01-15T01:50:54.892Z,49.46
2024-01-15T01:53:23.287Z,49.72
2024-01-15T01:55:51.959Z,49.99
2024-01-15T01:58:21.049Z,49.84
2024-01-15T02:00:50.758Z,49.83
2024-01-15T02:03:18.742Z,49.99
2024-01-15T02:05:47.691Z,49.76
2024-01-15T02:08:15.554Z,49.69
2024-01-15T02:10:43.148Z,49.77
2024-01-15T02:13:10.776Z,50.05
2024-01-15T02:15:38.405Z,50.01
2024-01-15T02:18:09.192Z,49.86
2024-01-15T02:20:37.590Z,50.03
2024-01-15T02:23:14.003Z,50.00
2024-01-15T02:25:42.783Z,50.19
2024-01-15T02:28:11.884Z,50.27
2024-01-15T02:30:41.196Z,50.14
2024-01-15T02:33:09.281Z,49.98
2024-01-15T02:35:38.072Z,50.09
2024-01-15T02:38:06.143Z,50.20
2024-01-15T02:40:36.303Z,50.26
2024-01-15T02:43:04.159Z,50.35
2024-01-15T02:45:32.170Z,49.83
2024-01-15T02:47:59.927Z,50.41
2024-01-15T02:50:27.544Z,50.71
2024-01-15T02:52:55.174Z,50.22
2024-01-15T02:55:22.917Z,50.42
2024-01-15T02:57:51.871Z,50.10
2024-01-15T03:00:19.735Z,50.60
2024-01-15T03:02:48.911Z,50.48
2024-01-15T03:05:17.240Z,50.32
2024-01-15T03:07:45.546Z,50.29
2024-01-15T03:10:13.193Z,50.48
2024-01-15T03:12:40.816Z,50.53
2024-01-15T03:15:09.914Z,50.40
2024-01-15T03:17:37.575Z,50.85
2024-01-15T03:20:05.925Z,50.86
2024-01-15T03:22:33.627Z,50.66
2024-01-15T03:25:01.290Z,50.89
2024-01-15T03:27:29.192Z,50.74
2024-01-15T03:29:56.792Z,50.66
2024-01-15T03:32:25.707Z,50.89
2024-01-15T03:34:53.624Z,50.89
2024-01-15T03:37:21.558Z,50.69
2024-01-15T03:39:49.294Z,50.75
2024-01-15T03:42:17.178Z,50.61
2024-01-15T03:44:44.873Z,50.84
2024-01-15T03:47:12.452Z,50.94
2024-01-15T03:49:41.531Z,51.10
2024-01-15T03:52:09.171Z,50.84
2024-01-15T03:54:36.809Z,50.67
2024-01-15T03:57:04.672Z,50.79
2024-01-15T03:59:32.246Z,51.21
2024-01-15T04:01:59.848Z,50.84
2024-01-15T04:04:27.605Z,50.78
2024-01-15T04:06:56.671Z,50.56
2024-01-15T04:09:24.318Z,50.92
2024-01-15T04:11:51.932Z,50.71
2024-01-15T04:14:19.504Z,50.76
2024-01-15T04:16:47.065Z,50.75
2024-01-15T04:19:14.780Z,50.73
2024-01-15T04:21:43.164Z,50.95
2024-01-15T04:24:13.267Z,50.82
2024-01-15T04:26:40.925Z,50.58
2024-01-15T04:29:08.506Z,50.76
2024-01-15T04:31:36.267Z,50.45
2024-01-15T04:34:04.098Z,50.73
2024-01-15T04:36:31.780Z,50.65
2024-01-15T04:38:59.348Z,50.69
2024-01-15T04:41:28.265Z,51.03
2024-01-15T04:43:55.820Z,50.96
2024-01-15T04:46:23.423Z,50.65
2024-01-15T04:48:51.108Z,50.96
2024-01-15T04:51:18.764Z,50.54
2024-01-15T04:53:46.484Z,50.82
2024-01-15T04:56:14.052Z,51.07
2024-01-15T04:58:43.394Z,50.96
2024-01-15T05:01:11.583Z,50.79
2024-01-15T05:03:39.476Z,50.95
2024-01-15T05:06:07.584Z,51.00
2024-01-15T05:08:35.192Z,51.14
2024-01-15T05:11:03.132Z,51.18
2024-01-15T05:13:30.736Z,51.28
2024-01-15T05:15:59.749Z,51.00
2024-01-15T05:18:27.545Z,51.02
2024-01-15T05:20:55.612Z,50.95
2024-01-15T05:23:23.271Z,51.17
2024-01-15T05:25:51.207Z,51.37
2024-01-15T05:28:19.228Z,51.09
2024-01-15T05:30:46.920Z,51.36
2024-01-15T05:33:16.090Z,51.56
2024-01-15T05:35:44.022Z,51.40
2024-01-15T05:38:11.625Z,51.39
2024-01-15T05:40:39.236Z,51.39
2024-01-15T05:43:06.839Z,51.53
2024-01-15T05:45:36.881Z,51.38
2024-01-15T05:48:05.081Z,51.82
2024-01-15T05:50:34.165Z,51.28
2024-01-15T05:53:01.748Z,51.56
2024-01-15T05:55:29.297Z,51.87
2024-01-15T05:57:57.021Z,51.38
2024-01-15T06:00:24.664Z,51.61
2024-01-15T06:02:52.320Z,51.79
2024-01-15T06:05:20.024Z,51.71
2024-01-15T06:07:49.017Z,51.47
2024-01-15T06:10:16.763Z,51.42
2024-01-15T06:12:45.924Z,51.36
2024-01-15T06:15:14.231Z,51.42
2024-01-15T06:17:41.903Z,51.49
2024-01-15T06:20:11.117Z,51.13
2024-01-15T06:22:40.216Z,51.16
2024-01-15T06:25:10.420Z,50.75
2024-01-15T06:27:38.053Z,50.97
2024-01-15T06:30:07.799Z,50.93
2024-01-15T06:32:35.518Z,50.70
2024-01-15T06:35:03.242Z,50.83
2024-01-15T06:37:30.815Z,50.48
2024-01-15T06:39:58.544Z,50.71
2024-01-15T06:42:27.728Z,50.56
2024-01-15T06:44:55.368Z,50.55
2024-01-15T06:47:22.951Z,50.32
2024-01-15T06:49:51.733Z,50.22
2024-01-15T06:52:19.651Z,50.38
2024-01-15T06:54:47.323Z,50.14
2024-01-15T06:57:15.014Z,50.25
2024-01-15T06:59:43.981Z,50.32
2024-01-15T07:02:11.623Z,50.13
2024-01-15T07:04:42.773Z,50.16
2024-01-15T07:07:11.306Z,50.16
2024-01-15T07:09:39.038Z,50.32
2024-01-15T07:12:07.057Z,50.50
2024-01-15T07:14:34.627Z,50.32
2024-01-15T07:17:03.667Z,50.16
2024-01-15T07:19:31.348Z,50.03
2024-01-15T07:21:59.163Z,50.21
2024-01-15T07:24:26.882Z,50.21
2024-01-15T07:26:54.494Z,50.32
2024-01-15T07:29:22.053Z,50.25
2024-01-15T07:31:51.469Z,50.10
2024-01-15T07:34:20.654Z,50.31
2024-01-15T07:36:48.492Z,50.28
2024-01-15T07:39:16.212Z,50.48
2024-01-15T07:41:43.781Z,50.31
2024-01-15T07:44:11.369Z,50.62
2024-01-15T07:46:40.215Z,50.56
2024-01-15T07:49:07.888Z,50.34
2024-01-15T07:51:36.965Z,50.37
2024-01-15T07:54:04.784Z,50.27
2024-01-15T07:56:32.864Z,50.34
2024-01-15T07:59:00.571Z,50.45
2024-01-15T08:01:28.317Z,50.54
2024-01-15T08:03:56.488Z,50.15
2024-01-15T08:06:24.399Z,50.29
2024-01-15T08:08:53.358Z,50.38
2024-01-15T08:11:20.932Z,50.80
2024-01-15T08:13:48.489Z,50.55
2024-01-15T08:16:16.207Z,50.31
2024-01-15T08:18:45.248Z,50.35
2024-01-15T08:21:13.083Z,50.43
2024-01-15T08:23:40.679Z,50.27
2024-01-15T08:26:09.914Z,50.38
2024-01-15T08:28:39.511Z,50.42
2024-01-15T08:31:07.470Z,50.31
2024-01-15T08:33:35.234Z,50.04
2024-01-15T08:36:03.018Z,49.89
2024-01-15T08:38:30.588Z,50.12
2024-01-15T08:41:00.029Z,50.33
2024-01-15T08:43:28.990Z,49.93
2024-01-15T08:45:56.606Z,50.13
2024-01-15T08:48:24.284Z,50.04
2024-01-15T08:50:53.118Z,49.86
2024-01-15T08:53:20.962Z,50.25
2024-01-15T08:55:48.718Z,49.93
2024-01-15T08:58:16.391Z,49.90
2024-01-15T09:00:45.423Z,50.10
2024-01-15T09:03:13.238Z,49.83
2024-01-15T09:05:41.922Z,50.06
2024-01-15T09:08:09.528Z,50.01
2024-01-15T09:10:37.166Z,49.65
2024-01-15T09:13:05.767Z,49.96
2024-01-15T09:15:33.492Z,49.70
2024-01-15T09:18:06.145Z,49.88
2024-01-15T09:20:35.574Z,49.92
2024-01-15T09:23:03.637Z,49.78
2024-01-15T09:25:31.322Z,49.74
2024-01-15T09:27:59.181Z,49.90
2024-01-15T09:30:26.936Z,49.84
2024-01-15T09:32:54.732Z,50.15
2024-01-15T09:35:25.295Z,49.75
2024-01-15T09:37:53.165Z,49.80
2024-01-15T09:40:23.090Z,49.78
2024-01-15T09:42:52.176Z,50.03
2024-01-15T09:45:20.503Z,50.22
2024-01-15T09:47:48.694Z,50.11
2024-01-15T09:50:17.229Z,50.14
2024-01-15T09:52:46.935Z,50.05
2024-01-15T09:55:16.244Z,50.25
2024-01-15T09:57:45.911Z,50.27
2024-01-15T10:00:14.860Z,50.29
2024-01-15T10:02:42.490Z,50.31
2024-01-15T10:05:10.370Z,50.43
2024-01-15T10:07:39.698Z,50.33
2024-01-15T10:10:09.754Z,50.33
2024-01-15T10:12:38.244Z,50.22
2024-01-15T10:15:06.748Z,50.61
2024-01-15T10:17:34.416Z,50.35
2024-01-15T10:20:02.719Z,50.39
2024-01-15T10:22:30.481Z,50.45
2024-01-15T10:24:58.637Z,50.15
2024-01-15T10:27:27.612Z,50.32
2024-01-15T10:29:55.250Z,50.30
2024-01-15T10:32:25.019Z,50.51
2024-01-15T10:34:55.019Z,50.42
2024-01-15T10:37:24.487Z,50.50
2024-01-15T10:39:54.334Z,50.27
2024-01-15T10:42:22.052Z,50.09
2024-01-15T10:44:51.110Z,50.36
2024-01-15T10:47:19.273Z,50.32
2024-01-15T10:49:47.991Z,50.44
2024-01-15T10:52:16.633Z,50.32
2024-01-15T10:54:46.037Z,50.61
2024-01-15T10:57:16.743Z,50.43
2024-01-15T10:59:44.337Z,50.47
2024-01-15T11:02:15.142Z,50.47
2024-01-15T11:04:42.914Z,50.35
2024-01-15T11:07:12.970Z,50.43
2024-01-15T11:09:40.672Z,50.28
2024-01-15T11:12:10.263Z,50.76
2024-01-15T11:14:41.843Z,50.30
2024-01-15T11:17:10.646Z,50.34
2024-01-15T11:19:41.861Z,50.45
2024-01-15T11:22:10.812Z,50.43
2024-01-15T11:24:40.369Z,50.27
2024-01-15T11:27:09.939Z,50.08
2024-01-15T11:29:37.650Z,50.49
2024-01-15T11:32:09.088Z,50.15
2024-01-15T11:35:02.940Z,50.20
2024-01-15T11:37:51.659Z,50.36
2024-01-15T11:40:20.841Z,50.01
2024-01-15T11:42:49.455Z,49.97
2024-01-15T11:45:20.591Z,50.03
2024-01-15T11:48:10.982Z,49.88
2024-01-15T11:50:42.212Z,50.08
2024-01-15T11:53:19.867Z,49.91
2024-01-15T11:55:49.675Z,49.96
2024-01-15T11:58:18.197Z,49.92
2024-01-15T12:00:47.124Z,49.70
2024-01-15T12:03:14.029Z,49.91
2024-01-15T12:05:43.906Z,49.50
2024-01-15T12:08:12.630Z,49.78
2024-01-15T12:10:42.003Z,49.63
2024-01-15T12:13:13.190Z,49.58
2024-01-15T12:15:42.327Z,49.46
2024-01-15T12:18:11.545Z,49.59
2024-01-15T12:20:39.533Z,49.58
2024-01-15T12:23:09.216Z,49.30
2024-01-15T12:25:38.834Z,49.01
2024-01-15T12:28:07.752Z,49.12
2024-01-15T12:30:37.129Z,49.00
2024-01-15T12:33:06.023Z,48.78
2024-01-15T12:35:35.792Z,49.05
2024-01-15T12:38:04.776Z,49.03
2024-01-15T12:40:35.953Z,49.10
2024-01-15T12:43:04.507Z,48.94
2024-01-15T12:45:32.777Z,48.81
2024-01-15T12:48:01.340Z,49.31
2024-01-15T12:50:29.069Z,49.28
2024-01-15T12:52:56.913Z,48.87
2024-01-15T12:55:24.595Z,49.29
2024-01-15T12:57:55.670Z,49.24
2024-01-15T13:00:23.752Z,49.32
2024-01-15T13:02:51.819Z,49.15
2024-01-15T13:05:21.630Z,49.14
2024-01-15T13:07:49.483Z,49.01
2024-01-15T13:10:17.301Z,49.19
2024-01-15T13:12:45.006Z,49.21
2024-01-15T13:15:15.301Z,49.04
2024-01-15T13:17:44.338Z,49.02
2024-01-15T13:20:13.330Z,49.00
2024-01-15T13:22:41.660Z,49.00
2024-01-15T13:25:10.332Z,48.96
2024-01-15T13:27:39.341Z,49.04
2024-01-15T13:30:09.765Z,49.08
2024-01-15T13:32:39.060Z,48.98
2024-01-15T13:35:10.594Z,49.19
2024-01-15T13:37:39.053Z,49.17
2024-01-15T13:40:08.772Z,49.08
2024-01-15T13:42:39.060Z,49.08
2024-01-15T13:45:08.515Z,49.26
2024-01-15T13:47:36.141Z,49.37
2024-01-15T13:50:05.603Z,49.17
2024-01-15T13:52:33.249Z,48.81
2024-01-15T13:55:00.975Z,49.15
2024-01-15T13:57:28.622Z,49.52
2024-01-15T13:59:56.284Z,49.50
2024-01-15T14:02:25.082Z,48.99
2024-01-15T14:04:53.445Z,49.12
2024-01-15T14:07:22.796Z,49.40
2024-01-15T14:09:50.572Z,49.24
2024-01-15T14:12:18.269Z,49.37
2024-01-15T14:14:45.886Z,49.54
2024-01-15T14:17:13.465Z,49.27
2024-01-15T14:19:41.370Z,49.54
2024-01-15T14:22:09.063Z,49.56
2024-01-15T14:24:38.716Z,49.28
2024-01-15T14:27:08.165Z,49.66
2024-01-15T14:29:36.760Z,49.57
2024-01-15T14:32:04.971Z,49.52
2024-01-15T14:34:33.063Z,49.60
2024-01-15T14:37:00.838Z,49.53
2024-01-15T14:39:28.514Z,49.47
2024-01-15T14:41:57.922Z,49.39
2024-01-15T14:44:25.556Z,49.06
2024-01-15T14:46:53.158Z,49.04
2024-01-15T14:49:20.950Z,48.83
2024-01-15T14:51:50.254Z,48.97
2024-01-15T14:54:17.919Z,48.83
2024-01-15T14:56:45.565Z,48.77
2024-01-15T14:59:15.168Z,48.57
2024-01-15T15:01:43.416Z,48.61
2024-01-15T15:04:11.697Z,48.45
2024-01-15T15:06:39.820Z,48.47
2024-01-15T15:09:10.772Z,48.30
2024-01-15T15:11:38.703Z,48.49
2024-01-15T15:14:06.318Z,48.48
2024-01-15T15:16:35.303Z,48.44
2024-01-15T15:19:03.172Z,48.34
2024-01-15T15:21:30.909Z,48.36
2024-01-15T15:23:58.556Z,48.12
2024-01-15T15:26:26.261Z,48.13
2024-01-15T15:28:53.835Z,48.16
2024-01-15T15:31:21.452Z,47.98
2024-01-15T15:33:50.592Z,47.79
2024-01-15T15:36:20.218Z,48.01
2024-01-15T15:38:48.121Z,47.64
2024-01-15T15:41:15.764Z,47.77
2024-01-15T15:43:43.459Z,47.70
2024-01-15T15:46:11.051Z,47.53
2024-01-15T15:48:38.823Z,47.55
2024-01-15T15:51:08.299Z,47.63
2024-01-15T15:53:35.928Z,47.57
2024-01-15T15:56:03.698Z,47.66
2024-01-15T15:58:31.323Z,47.49
2024-01-15T16:00:59.068Z,47.47
2024-01-15T16:03:26.765Z,47.42
2024-01-15T16:05:54.435Z,47.50
2024-01-15T16:08:23.377Z,47.11
2024-01-15T16:10:52.589Z,47.21
2024-01-15T16:13:20.913Z,47.03
2024-01-15T16:15:49.030Z,47.26
2024-01-15T16:23:20.144Z,47.39
2024-01-15T16:23:34.834Z,47.14
2024-01-15T16:24:12.522Z,46.97
2024-01-15T16:26:43.502Z,47.10
2024-01-15T16:29:11.437Z,47.16
2024-01-15T16:31:39.726Z,47.30
2024-01-15T16:34:09.844Z,47.15
2024-01-15T16:36:39.682Z,47.05
2024-01-15T16:39:08.794Z,47.32
2024-01-15T16:41:36.520Z,47.30
2024-01-15T16:44:04.844Z,47.33
2024-01-15T16:46:32.431Z,47.28
2024-01-15T16:49:02.900Z,47.25
2024-01-15T16:51:31.151Z,47.04
2024-01-15T16:53:59.468Z,46.82
2024-01-15T16:56:28.507Z,47.01
2024-01-15T16:58:57.503Z,47.05
2024-01-15T17:01:25.212Z,47.13
2024-01-15T17:03:53.414Z,46.94
2024-01-15T17:06:21.347Z,46.99
2024-01-15T17:08:48.950Z,46.89
2024-01-15T17:11:16.573Z,47.10
2024-01-15T17:13:45.503Z,47.13
2024-01-15T17:16:13.068Z,46.77
2024-01-15T17:18:40.665Z,47.08
2024-01-15T17:21:08.358Z,46.71
2024-01-15T17:23:36.182Z,46.93
2024-01-15T17:26:04.447Z,46.70
2024-01-15T17:28:32.099Z,47.00
2024-01-15T17:31:01.045Z,46.94
2024-01-15T17:33:28.784Z,46.80
2024-01-15T17:35:58.206Z,47.02
2024-01-15T17:38:26.208Z,46.90
2024-01-15T17:40:53.990Z,46.94
2024-01-15T17:43:21.840Z,46.86
2024-01-15T17:45:49.649Z,46.57
2024-01-15T17:48:18.982Z,46.55
2024-01-15T17:50:47.089Z,46.65
2024-01-15T17:53:14.990Z,46.40
2024-01-15T17:55:43.357Z,46.52
2024-01-15T17:58:10.977Z,46.86
2024-01-15T18:00:38.573Z,46.84
2024-01-15T18:03:06.558Z,46.63
2024-01-15T18:05:35.835Z,46.76
2024-01-15T18:08:03.908Z,46.86
2024-01-15T18:10:31.535Z,47.07
2024-01-15T18:12:59.476Z,47.01
2024-01-15T18:15:27.059Z,46.50
2024-01-15T18:17:55.190Z,46.87
2024-01-15T18:20:23.790Z,46.71
2024-01-15T18:22:54.572Z,46.77
2024-01-15T18:25:23.019Z,46.84
2024-01-15T18:27:50.602Z,46.87
2024-01-15T18:30:18.386Z,46.96
2024-01-15T18:32:46.082Z,46.76
2024-01-15T18:35:13.813Z,46.50
2024-01-15T18:37:41.424Z,46.60
2024-01-15T18:40:11.495Z,46.75
2024-01-15T18:42:39.193Z,46.79
2024-01-15T18:45:08.636Z,46.73
2024-01-15T18:47:36.365Z,46.83
2024-01-15T18:50:04.564Z,46.74
2024-01-15T18:52:32.859Z,47.13
2024-01-15T18:55:00.493Z,46.99
2024-01-15T18:57:29.429Z,46.84
2024-01-15T18:59:57.024Z,46.96
2024-01-15T19:02:24.576Z,46.75
2024-01-15T19:04:52.338Z,46.99
2024-01-15T19:07:19.982Z,46.81
2024-01-15T19:09:47.604Z,47.14
2024-01-15T19:12:15.258Z,46.88
2024-01-15T19:14:44.254Z,47.29
2024-01-15T19:17:11.881Z,46.97
2024-01-15T19:19:39.682Z,47.26
2024-01-15T19:22:07.351Z,46.94
2024-01-15T19:24:34.939Z,47.01
2024-01-15T19:27:02.552Z,47.08
2024-01-15T19:29:30.248Z,47.07
2024-01-15T19:31:59.522Z,46.63
2024-01-15T19:34:27.417Z,46.77
2024-01-15T19:36:55.771Z,46.96
2024-01-15T19:39:25.383Z,47.17
2024-01-15T19:41:53.534Z,47.08
2024-01-15T19:44:21.133Z,47.28
2024-01-15T19:46:48.726Z,47.13
2024-01-15T19:49:18.218Z,47.12
2024-01-15T19:51:47.550Z,47.02
2024-01-15T19:54:15.236Z,47.11
2024-01-15T19:56:42.879Z,47.10
2024-01-15T19:59:10.651Z,47.30
2024-01-15T20:01:38.264Z,46.87
2024-01-15T20:04:06.188Z,47.22
2024-01-15T20:06:35.725Z,47.25
2024-01-15T20:09:03.355Z,47.17
2024-01-15T20:11:30.974Z,47.19
2024-01-15T20:13:58.599Z,47.64
2024-01-15T20:16:27.066Z,47.74
2024-01-15T20:18:54.721Z,47.42
2024-01-15T20:21:22.420Z,47.53
2024-01-15T20:23:58.488Z,47.45
2024-01-15T20:26:29.231Z,47.64
2024-01-15T20:28:56.851Z,47.66
2024-01-15T20:31:24.435Z,47.49
2024-01-15T20:33:52.263Z,47.56
2024-01-15T20:36:19.982Z,47.16
2024-01-15T20:38:47.921Z,47.62
2024-01-15T20:41:18.024Z,47.51
2024-01-15T20:43:45.974Z,47.62
2024-01-15T20:46:13.581Z,47.56
2024-01-15T20:48:41.365Z,47.47
2024-01-15T20:51:10.929Z,47.29
2024-01-15T20:53:38.631Z,47.44
2024-01-15T20:56:06.671Z,47.26
2024-01-15T20:58:35.627Z,47.38
2024-01-15T21:01:05.759Z,47.14
2024-01-15T21:03:33.464Z,47.04
2024-01-15T21:06:01.634Z,47.04
2024-01-15T21:08:30.103Z,47.01
2024-01-15T21:10:57.689Z,47.10
2024-01-15T21:13:25.291Z,47.00
2024-01-15T21:15:54.222Z,46.97
2024-01-15T21:18:21.925Z,47.14
2024-01-15T21:20:49.640Z,46.94
2024-01-15T21:23:17.444Z,47.00
2024-01-15T21:25:45.101Z,46.87
2024-01-15T21:28:12.666Z,47.26
2024-01-15T21:30:40.277Z,47.21
2024-01-15T21:33:10.295Z,47.52
2024-01-15T21:35:38.005Z,47.61
2024-01-15T21:38:05.764Z,47.57
2024-01-15T21:40:33.934Z,47.40
2024-01-15T21:43:01.538Z,47.38
2024-01-15T21:45:29.120Z,47.40
2024-01-15T21:47:56.830Z,47.59
2024-01-15T21:50:25.996Z,47.40
2024-01-15T21:52:53.624Z,47.56
2024-01-15T21:55:21.200Z,47.46
2024-01-15T21:57:48.957Z,47.33
2024-01-15T22:00:17.872Z,47.65
2024-01-15T22:02:46.453Z,47.54
2024-01-15T22:05:14.382Z,47.36
2024-01-15T22:07:44.500Z,47.29
2024-01-15T22:10:12.851Z,47.34
2024-01-15T22:12:40.514Z,47.32
2024-01-15T22:15:09.280Z,47.50
2024-01-15T22:17:37.099Z,47.36
2024-01-15T22:20:05.607Z,47.24
2024-01-15T22:22:34.860Z,47.19
2024-01-15T22:25:03.976Z,47.27
2024-01-15T22:27:31.629Z,47.36
2024-01-15T22:29:59.332Z,47.35
2024-01-15T22:32:30.067Z,47.01
2024-01-15T22:34:59.502Z,47.47
2024-01-15T22:37:27.087Z,47.28
2024-01-15T22:39:54.648Z,47.35
2024-01-15T22:42:23.579Z,47.30
2024-01-15T22:44:51.296Z,47.46
2024-01-15T22:47:19.001Z,47.37
2024-01-15T22:49:46.569Z,47.33
2024-01-15T22:52:15.552Z,47.31
2024-01-15T22:54:44.072Z,47.71
2024-01-15T22:57:12.007Z,47.59
2024-01-15T22:59:41.013Z,47.49
2024-01-15T23:02:08.799Z,47.29
2024-01-15T23:04:36.563Z,47.39
2024-01-15T23:07:05.244Z,47.52
2024-01-15T23:09:33.270Z,47.27
2024-01-15T23:12:00.916Z,47.45
2024-01-15T23:14:28.538Z,47.33
2024-01-15T23:16:57.873Z,47.58
2024-01-15T23:19:25.513Z,47.54
2024-01-15T23:21:53.377Z,47.56
2024-01-15T23:24:20.960Z,47.41
2024-01-15T23:26:48.621Z,47.54
2024-01-15T23:29:16.222Z,47.59
2024-01-15T23:31:43.798Z,47.50
2024-01-15T23:34:12.835Z,47.72
2024-01-15T23:36:43.888Z,47.67
2024-01-15T23:39:11.829Z,47.52
2024-01-15T23:41:39.461Z,47.36
2024-01-15T23:44:07.112Z,47.61
2024-01-15T23:46:34.797Z,47.46
2024-01-15T23:49:03.081Z,47.48
2024-01-15T23:51:32.080Z,47.52
2024-01-15T23:53:59.644Z,47.27
2024-01-15T23:56:27.252Z,47.18
2024-01-15T23:58:54.836Z,47.29
